Time;durP1;ratioP1;P1;durP2;ratioP2;P2;SDS_P1;SDS_P2;PMS_P1;PMS_P2;Temp;Humidity;BMP_temperature;BMP_pressure;BME280_temperature;BME280_humidity;BME280_pressure;Samples;Min_cycle;Max_cycle;Signal;HPM_P1;HPM_P2
2021/11/29 00:00:23;;;;;;;3.15;2.20;;;;;;;2.25;100.00;99250.72;4982920;28;20057;-88
2021/11/29 00:03:01;;;;;;;3.03;1.85;;;;;;;2.22;100.00;99255.91;5005060;28;20065;-88
2021/11/29 00:05:47;;;;;;;3.17;2.05;;;;;;;2.19;100.00;99258.47;4995924;28;20034;-90
2021/11/29 00:08:35;;;;;;;2.05;1.95;;;;;;;2.17;100.00;99261.91;5001904;28;20034;-88
2021/11/29 00:11:17;;;;;;;2.17;2.03;;;;;;;2.13;100.00;99261.03;4996563;28;20054;-88
2021/11/29 00:16:56;;;;;;;2.75;1.73;;;;;;;2.05;100.00;99275.66;4991845;28;20056;-89
2021/11/29 00:19:38;;;;;;;;;;;;;;;;;;;;;
2021/11/29 00:22:05;;;;;;;1.58;1.48;;;;;;;1.91;100.00;99280.75;4978304;28;20048;-92
2021/11/29 00:24:33;;;;;;;4.78;1.77;;;;;;;1.86;100.00;99278.13;4976429;28;20049;-90
2021/11/29 00:26:59;;;;;;;2.90;1.90;;;;;;;1.81;100.00;99278.13;4975745;28;20172;-88
2021/11/29 00:29:26;;;;;;;3.10;2.00;;;;;;;1.77;100.00;99275.53;4973779;28;20052;-88
2021/11/29 00:31:53;;;;;;;2.58;2.38;;;;;;;1.77;100.00;99275.53;4954994;28;20540;-88
2021/11/29 00:34:21;;;;;;;2.33;2.08;;;;;;;1.74;100.00;99280.69;4955933;28;20428;-90
2021/11/29 00:36:49;;;;;;;2.90;2.10;;;;;;;1.73;100.00;99284.97;4953018;28;20046;-88
2021/11/29 00:39:17;;;;;;;2.80;2.60;;;;;;;1.72;100.00;99288.41;4972052;28;20113;-92
2021/11/29 00:41:45;;;;;;;2.90;2.35;;;;;;;1.74;100.00;99293.59;4976731;28;20824;-91
2021/11/29 00:44:13;;;;;;;2.50;2.30;;;;;;;1.74;100.00;99293.59;4955632;28;20058;-90
2021/11/29 00:46:40;;;;;;;2.78;2.53;;;;;;;1.77;100.00;99289.31;4962067;28;20054;-91
2021/11/29 00:49:07;;;;;;;1.92;1.83;;;;;;;1.80;100.00;99294.47;4960222;28;20053;-89
2021/11/29 00:51:36;;;;;;;2.65;2.17;;;;;;;1.83;100.00;99297.94;4958582;28;20127;-86
2021/11/29 00:54:02;;;;;;;2.13;1.92;;;;;;;1.85;100.00;99303.94;4970833;28;20046;-91
2021/11/29 00:56:30;;;;;;;2.08;1.98;;;;;;;1.85;100.00;99307.38;4977786;28;20054;-85
2021/11/29 00:58:58;;;;;;;1.95;1.75;;;;;;;1.85;100.00;99309.09;4962147;28;20051;-88
2021/11/29 01:01:25;;;;;;;2.60;2.03;;;;;;;1.85;100.00;99304.78;4946204;28;20050;-87
2021/11/29 01:03:54;;;;;;;2.67;1.73;;;;;;;1.84;100.00;99305.69;4976401;28;21810;-90
2021/11/29 01:06:22;;;;;;;4.50;1.88;;;;;;;1.86;100.00;99301.38;4971703;28;20972;-88
2021/11/29 01:08:49;;;;;;;5.35;2.83;;;;;;;1.89;100.00;99301.41;4951841;28;20050;-86
2021/11/29 01:11:16;;;;;;;3.85;2.58;;;;;;;1.89;100.00;99309.16;4973355;28;20119;-89
2021/11/29 01:13:43;;;;;;;2.53;1.73;;;;;;;1.90;100.00;99312.56;4960209;28;20042;-89
2021/11/29 01:16:12;;;;;;;2.03;1.80;;;;;;;1.90;100.00;99304.81;4965045;28;20030;-87
2021/11/29 01:18:39;;;;;;;2.47;1.65;;;;;;;1.91;100.00;99306.56;4979882;28;20030;-87
2021/11/29 01:21:07;;;;;;;5.05;1.90;;;;;;;1.87;100.00;99313.41;4985144;28;20046;-88
2021/11/29 01:23:35;;;;;;;3.72;2.47;;;;;;;1.88;100.00;99309.09;4978596;28;20059;-88
2021/11/29 01:26:02;;;;;;;2.80;1.98;;;;;;;1.89;100.00;99314.31;4958955;28;20424;-91
2021/11/29 01:28:30;;;;;;;2.00;1.65;;;;;;;1.88;100.00;99315.16;4974519;28;20129;-89
2021/11/29 01:30:57;;;;;;;6.55;2.47;;;;;;;1.88;100.00;99309.09;4968085;28;20440;-89
2021/11/29 01:33:24;;;;;;;1.77;1.60;;;;;;;1.86;100.00;99314.25;4992001;28;20115;-90
2021/11/29 01:35:51;;;;;;;4.00;1.45;;;;;;;1.83;100.00;99313.41;4987053;28;20045;-90
2021/11/29 01:38:18;;;;;;;7.40;1.50;;;;;;;1.83;100.00;99321.16;4968617;28;20061;-88
2021/11/29 01:40:45;;;;;;;1.80;1.70;;;;;;;1.84;100.00;99313.41;4996830;28;20038;-88
2021/11/29 01:43:17;;;;;;;1.50;1.40;;;;;;;1.82;100.00;99315.13;4985361;28;20045;-92
2021/11/29 01:45:50;;;;;;;3.08;1.92;;;;;;;1.83;100.00;99318.56;4991945;28;20050;-92
2021/11/29 01:48:17;;;;;;;5.50;2.30;;;;;;;1.83;100.00;99322.00;4966300;28;20569;-90
2021/11/29 01:50:50;;;;;;;1.13;1.05;;;;;;;1.82;100.00;99322.84;4973334;28;20213;-91
2021/11/29 01:53:19;;;;;;;3.20;1.60;;;;;;;1.83;100.00;99323.75;4987999;28;20029;-87
2021/11/29 01:55:49;;;;;;;3.25;1.88;;;;;;;1.82;100.00;99322.84;4977863;28;20042;-91
2021/11/29 01:58:18;;;;;;;2.85;1.67;;;;;;;1.81;100.00;99329.75;4989127;28;20100;-92
2021/11/29 02:00:51;;;;;;;1.88;1.77;;;;;;;1.77;100.00;99325.44;4998266;28;20780;-91
2021/11/29 02:03:23;;;;;;;1.92;1.83;;;;;;;1.79;100.00;99328.84;4984885;28;20042;-91
2021/11/29 02:05:51;;;;;;;2.10;1.80;;;;;;;1.79;100.00;99335.75;4979462;28;21076;-90
2021/11/29 02:08:19;;;;;;;2.63;1.67;;;;;;;1.79;100.00;99338.34;4974565;28;20815;-88
2021/11/29 02:10:47;;;;;;;3.00;2.47;;;;;;;1.81;100.00;99337.47;4982153;28;20062;-89
2021/11/29 02:13:15;;;;;;;3.53;2.05;;;;;;;1.85;100.00;99342.66;4973715;28;20084;-90
2021/11/29 02:15:42;;;;;;;2.38;1.27;;;;;;;1.86;100.00;99342.66;4983413;28;20041;-90
2021/11/29 02:18:09;;;;;;;2.10;1.88;;;;;;;1.88;100.00;99337.50;4963145;28;20120;-88
2021/11/29 02:20:37;;;;;;;2.08;1.45;;;;;;;1.87;100.00;99348.69;4969263;28;20126;-92
2021/11/29 02:23:06;;;;;;;4.07;1.80;;;;;;;1.87;100.00;99339.22;4984683;28;21170;-91
2021/11/29 02:25:33;;;;;;;2.67;1.90;;;;;;;1.86;100.00;99342.66;4969421;28;20070;-91
2021/11/29 02:28:02;;;;;;;3.75;2.28;;;;;;;1.85;100.00;99343.50;4990875;28;20058;-86
2021/11/29 02:30:35;;;;;;;2.22;1.90;;;;;;;1.86;100.00;99349.53;4976627;28;20548;-90
2021/11/29 02:33:02;;;;;;;1.60;1.50;;;;;;;1.86;100.00;99344.38;4981937;28;20046;-90
2021/11/29 02:35:31;;;;;;;4.10;2.22;;;;;;;1.87;100.00;99349.53;4981478;28;20077;-89
2021/11/29 02:38:01;;;;;;;5.35;2.67;;;;;;;1.90;100.00;99352.13;4975696;28;20049;-88
2021/11/29 02:40:31;;;;;;;1.80;1.70;;;;;;;1.91;100.00;99359.03;4974781;28;20050;-89
2021/11/29 02:42:58;;;;;;;2.85;1.92;;;;;;;1.92;100.00;99353.00;4954942;28;20058;-91
2021/11/29 02:45:28;;;;;;;1.50;1.40;;;;;;;1.93;100.00;99352.16;4983971;28;20073;-89
2021/11/29 02:47:55;;;;;;;2.50;1.35;;;;;;;1.95;100.00;99357.34;4984340;28;20095;-88
2021/11/29 02:50:22;;;;;;;1.30;1.20;;;;;;;1.93;100.00;99359.03;4983883;28;20050;-89
2021/11/29 02:52:49;;;;;;;2.83;1.30;;;;;;;1.91;100.00;99358.19;4988173;28;20042;-91
2021/11/29 02:55:15;;;;;;;4.07;1.52;;;;;;;1.91;100.00;99356.44;4984095;28;20242;-89
2021/11/29 02:57:42;;;;;;;2.58;1.45;;;;;;;1.91;100.00;99361.59;4984661;28;20060;-91
2021/11/29 03:00:13;;;;;;;2.17;1.52;;;;;;;1.91;100.00;99364.19;4979862;28;20046;-88
2021/11/29 03:02:40;;;;;;;2.25;1.60;;;;;;;1.91;100.00;99364.19;4982203;28;20053;-88
2021/11/29 03:05:09;;;;;;;1.85;1.77;;;;;;;1.90;100.00;99366.75;4979104;28;20085;-88
2021/11/29 03:07:48;;;;;;;2.63;2.42;;;;;;;1.88;100.00;99368.47;5003903;28;20094;-87
2021/11/29 03:10:15;;;;;;;1.52;1.42;;;;;;;1.85;100.00;99369.31;4985640;28;20073;-91
2021/11/29 03:12:42;;;;;;;1.40;1.33;;;;;;;1.83;100.00;99368.44;4967085;28;20058;-88
2021/11/29 03:15:10;;;;;;;5.10;1.75;;;;;;;1.83;100.00;99371.03;4969488;28;20140;-87
2021/11/29 03:17:38;;;;;;;1.88;1.23;;;;;;;1.83;100.00;99368.44;4978264;28;20033;-90
2021/11/29 03:20:09;;;;;;;2.55;1.55;;;;;;;1.85;100.00;99376.19;4974411;28;20049;-88
2021/11/29 03:22:40;;;;;;;1.15;1.15;;;;;;;1.85;100.00;99371.03;5004060;28;20054;-85
2021/11/29 03:25:10;;;;;;;1.67;1.23;;;;;;;1.86;100.00;99370.19;4977171;28;20062;-87
2021/11/29 03:27:40;;;;;;;2.35;1.65;;;;;;;1.87;100.00;99371.91;4985359;28;20052;-89
2021/11/29 03:30:12;;;;;;;2.58;1.38;;;;;;;1.86;100.00;99373.63;4981547;28;20054;-91
2021/11/29 03:32:44;;;;;;;2.33;1.00;;;;;;;1.85;100.00;99377.03;4985063;28;20076;-89
2021/11/29 03:35:11;;;;;;;3.85;1.25;;;;;;;1.86;100.00;99381.34;5003939;28;20135;-87
2021/11/29 03:37:38;;;;;;;2.88;1.70;;;;;;;1.87;100.00;99382.25;4987811;28;20041;-88
2021/11/29 03:40:07;;;;;;;3.00;1.65;;;;;;;1.88;100.00;99383.94;4985130;28;20033;-87
2021/11/29 03:42:34;;;;;;;5.22;2.10;;;;;;;1.87;100.00;99382.25;5007661;28;20547;-91
2021/11/29 03:45:05;;;;;;;6.05;2.17;;;;;;;1.87;100.00;99388.25;5010203;28;20053;-86
2021/11/29 03:47:32;;;;;;;3.15;2.95;;;;;;;1.83;100.00;99383.94;4985322;28;20623;-90
2021/11/29 03:49:59;;;;;;;2.30;2.10;;;;;;;1.80;100.00;99382.19;4974424;28;20033;-91
2021/11/29 03:52:25;;;;;;;1.98;1.88;;;;;;;1.80;100.00;99383.94;4973165;28;20210;-89
2021/11/29 03:54:52;;;;;;;1.80;1.70;;;;;;;1.77;100.00;99392.50;4974214;28;20053;-90
2021/11/29 03:57:20;;;;;;;2.15;1.73;;;;;;;1.76;100.00;99389.91;4974361;28;20037;-92
2021/11/29 03:59:50;;;;;;;2.42;1.55;;;;;;;1.72;100.00;99401.06;4974784;28;20054;-86
2021/11/29 04:02:17;;;;;;;1.52;1.50;;;;;;;1.72;100.00;99404.50;4977739;28;20191;-90
2021/11/29 04:04:44;;;;;;;2.28;2.17;;;;;;;1.71;100.00;99399.31;4987158;28;20740;-91
2021/11/29 04:07:11;;;;;;;2.72;1.83;;;;;;;1.73;100.00;99402.78;4972252;28;20050;-88
2021/11/29 04:09:39;;;;;;;1.95;1.83;;;;;;;1.72;100.00;99395.91;4993340;28;20109;-90
2021/11/29 04:12:07;;;;;;;3.03;1.95;;;;;;;1.74;100.00;99401.94;4977849;28;20928;-88
2021/11/29 04:14:35;;;;;;;3.88;1.88;;;;;;;1.73;100.00;99406.22;4991737;28;20085;-91
2021/11/29 04:17:06;;;;;;;2.22;1.73;;;;;;;1.73;100.00;99397.63;4981490;28;20133;-92
2021/11/29 04:19:37;;;;;;;2.05;1.75;;;;;;;1.70;100.00;99408.78;4976588;28;20238;-89
2021/11/29 04:22:05;;;;;;;3.25;1.80;;;;;;;1.67;100.00;99408.78;4957268;28;20050;-89
2021/11/29 04:24:32;;;;;;;6.00;1.88;;;;;;;1.65;100.00;99415.63;4969520;28;20046;-90
2021/11/29 04:27:04;;;;;;;3.80;1.58;;;;;;;1.65;100.00;99424.22;4974017;28;21204;-91
2021/11/29 04:29:37;;;;;;;2.72;2.13;;;;;;;1.65;100.00;99421.63;4947292;28;20736;-91
2021/11/29 04:32:07;;;;;;;3.88;2.58;;;;;;;1.68;100.00;99428.53;4978778;28;20045;-88
2021/11/29 04:34:38;;;;;;;4.03;2.05;;;;;;;1.71;100.00;99432.84;4989972;28;20146;-88
2021/11/29 04:37:07;;;;;;;3.30;2.03;;;;;;;1.69;100.00;99424.25;4972952;28;20053;-90
2021/11/29 04:39:36;;;;;;;3.13;2.33;;;;;;;1.71;100.00;99423.41;4974803;28;20077;-87
2021/11/29 04:42:04;;;;;;;4.03;2.28;;;;;;;1.76;100.00;99433.75;4986924;28;20052;-91
2021/11/29 04:44:31;;;;;;;4.72;2.38;;;;;;;1.75;100.00;99426.91;4974511;28;20041;-88
2021/11/29 04:46:58;;;;;;;4.43;2.38;;;;;;;1.75;100.00;99435.50;5002172;28;20042;-91
2021/11/29 04:49:26;;;;;;;2.75;2.55;;;;;;;1.76;100.00;99437.22;4974723;28;20057;-89
2021/11/29 04:51:55;;;;;;;2.65;2.25;;;;;;;1.73;100.00;99437.19;4985051;28;20065;-87
2021/11/29 04:54:22;;;;;;;5.45;2.60;;;;;;;1.74;100.00;99444.06;4992136;28;20920;-86
2021/11/29 04:56:49;;;;;;;5.30;3.15;;;;;;;1.75;100.00;99447.53;5003997;28;20037;-86
2021/11/29 04:59:16;;;;;;;3.60;3.10;;;;;;;1.76;100.00;99451.81;5010214;28;20739;-88
2021/11/29 05:01:43;;;;;;;5.70;3.35;;;;;;;1.75;100.00;99448.38;4988509;28;20109;-87
2021/11/29 05:04:11;;;;;;;4.93;3.42;;;;;;;1.75;100.00;99456.13;5003421;28;20045;-86
2021/11/29 05:06:39;;;;;;;3.45;2.60;;;;;;;1.74;100.00;99458.69;5006013;28;20042;-89
2021/11/29 05:09:09;;;;;;;3.67;3.03;;;;;;;1.72;100.00;99460.41;4999127;28;20169;-84
2021/11/29 05:11:37;;;;;;;8.90;4.45;;;;;;;1.72;100.00;99462.97;5007140;28;20680;-88
2021/11/29 05:14:04;;;;;;;3.65;3.30;;;;;;;1.73;100.00;99467.28;4984634;28;20038;-89
2021/11/29 05:16:41;;;;;;;3.20;3.00;;;;;;;1.73;100.00;99465.56;4972789;28;20050;-91
2021/11/29 05:19:09;;;;;;;6.63;2.72;;;;;;;1.74;100.00;99466.44;4973359;28;20061;-88
2021/11/29 05:21:39;;;;;;;3.70;3.25;;;;;;;1.76;100.00;99470.75;4941649;28;21508;-88
2021/11/29 05:24:08;;;;;;;4.30;2.95;;;;;;;1.78;100.00;99463.88;4978773;28;20527;-89
2021/11/29 05:26:35;;;;;;;4.07;3.30;;;;;;;1.81;100.00;99481.09;4960878;28;20826;-88
2021/11/29 05:29:04;;;;;;;5.28;3.55;;;;;;;1.80;100.00;99484.56;4966941;28;20051;-89
2021/11/29 05:31:37;;;;;;;3.90;3.15;;;;;;;1.79;100.00;99482.81;4997846;28;20053;-90
2021/11/29 05:34:06;;;;;;;4.43;3.33;;;;;;;1.80;100.00;99484.56;4973455;28;20038;-88
2021/11/29 05:36:38;;;;;;;3.70;3.30;;;;;;;1.81;100.00;99496.59;4974753;28;20054;-88
2021/11/29 05:39:06;;;;;;;5.50;4.18;;;;;;;1.80;100.00;99495.72;4960116;28;20039;-88
2021/11/29 05:41:33;;;;;;;6.93;4.78;;;;;;;1.80;100.00;99510.38;4977366;28;20105;-87
2021/11/29 05:44:01;;;;;;;5.65;3.55;;;;;;;1.78;100.00;99507.75;4962879;28;20062;-88
2021/11/29 05:46:28;;;;;;;4.78;4.32;;;;;;;1.77;100.00;99513.78;4978171;28;20042;-88
2021/11/29 05:48:58;;;;;;;5.63;4.78;;;;;;;1.76;100.00;99517.22;4943260;28;20073;-89
2021/11/29 05:51:27;;;;;;;10.85;6.25;;;;;;;1.75;100.00;99520.63;4965544;28;20113;-88
2021/11/29 05:53:54;;;;;;;9.68;6.00;;;;;;;1.77;100.00;99528.38;4952580;28;20094;-87
2021/11/29 05:56:22;;;;;;;8.00;5.07;;;;;;;1.78;100.00;99530.97;4935328;28;20051;-90
2021/11/29 06:02:30;;;;;;;12.07;5.72;;;;;;;1.77;100.00;99536.13;4962592;28;20054;-89
2021/11/29 06:04:57;;;;;;;5.13;4.22;;;;;;;1.79;100.00;99544.75;4953671;28;20074;-90
2021/11/29 06:07:27;;;;;;;6.72;4.28;;;;;;;1.81;100.00;99549.06;4950302;28;20048;-91
2021/11/29 06:09:55;;;;;;;7.90;5.53;;;;;;;1.84;100.00;99552.50;4940003;28;20047;-91
2021/11/29 06:12:22;;;;;;;8.15;5.05;;;;;;;1.85;100.00;99559.41;4967670;28;20035;-90
2021/11/29 06:14:49;;;;;;;8.75;5.97;;;;;;;1.85;100.00;99560.25;4934926;28;20051;-90
2021/11/29 06:17:17;;;;;;;10.00;5.50;;;;;;;1.84;100.00;99565.41;4967268;28;20104;-90
2021/11/29 06:19:48;;;;;;;9.55;5.00;;;;;;;1.80;100.00;99570.56;4963520;28;20140;-91
2021/11/29 06:22:16;;;;;;;11.25;5.70;;;;;;;1.77;100.00;99569.66;4970642;28;20073;-91
2021/11/29 06:24:43;;;;;;;9.50;5.45;;;;;;;1.77;100.00;99572.25;4965909;28;20068;-89
2021/11/29 06:27:13;;;;;;;9.10;5.82;;;;;;;1.76;100.00;99573.09;4974892;28;20189;-90
2021/11/29 06:29:40;;;;;;;10.90;7.18;;;;;;;1.76;100.00;99580.81;4956179;28;20050;-90
2021/11/29 06:32:08;;;;;;;10.85;5.60;;;;;;;1.76;100.00;99586.88;4973331;28;20727;-89
2021/11/29 06:34:37;;;;;;;9.15;6.13;;;;;;;1.77;100.00;99590.31;4974566;28;20116;-89
2021/11/29 06:37:05;;;;;;;6.65;5.28;;;;;;;1.78;100.00;99589.47;4954030;28;20052;-89
2021/11/29 06:39:33;;;;;;;5.40;4.47;;;;;;;1.78;100.00;99602.38;4973906;28;20064;-90
2021/11/29 06:42:02;;;;;;;6.93;6.22;;;;;;;1.78;100.00;99599.78;4965121;28;20054;-89
2021/11/29 06:44:29;;;;;;;6.47;5.53;;;;;;;1.79;100.00;99607.53;4963126;28;20116;-88
2021/11/29 06:46:57;;;;;;;8.30;5.75;;;;;;;1.80;100.00;99611.00;4989471;28;20056;-88
2021/11/29 06:49:24;;;;;;;8.52;5.28;;;;;;;1.83;100.00;99621.34;5005947;28;20042;-90
2021/11/29 06:51:57;;;;;;;7.00;5.43;;;;;;;1.84;100.00;99612.75;4968218;28;20082;-89
2021/11/29 06:54:28;;;;;;;7.65;4.78;;;;;;;1.82;100.00;99617.03;4980291;28;20054;-88
2021/11/29 06:57:00;;;;;;;9.75;5.07;;;;;;;1.80;100.00;99622.16;4977886;28;20065;-89
2021/11/29 06:59:29;;;;;;;7.30;5.45;;;;;;;1.79;100.00;99623.00;4993013;28;20054;-89
2021/11/29 07:02:01;;;;;;;9.55;5.82;;;;;;;1.78;100.00;99629.03;4990796;28;20089;-89
2021/11/29 07:04:31;;;;;;;9.15;5.28;;;;;;;1.75;100.00;99629.00;4971535;28;20428;-89
2021/11/29 07:06:59;;;;;;;8.00;5.57;;;;;;;1.74;100.00;99629.00;4962542;28;20046;-89
2021/11/29 07:09:26;;;;;;;8.45;5.57;;;;;;;1.71;100.00;99631.50;4971331;28;20112;-90
2021/11/29 07:11:55;;;;;;;7.07;4.93;;;;;;;1.68;100.00;99641.81;4992300;28;20045;-88
2021/11/29 07:14:23;;;;;;;5.97;5.25;;;;;;;1.65;100.00;99648.66;4995307;28;20030;-89
2021/11/29 07:16:52;;;;;;;6.68;5.72;;;;;;;1.65;100.00;99652.97;4986511;28;20038;-90
2021/11/29 07:19:19;;;;;;;9.85;5.32;;;;;;;1.66;100.00;99657.28;4979253;28;20050;-89
2021/11/29 07:21:47;;;;;;;6.43;5.38;;;;;;;1.67;100.00;99660.72;4983848;28;20049;-91
2021/11/29 07:24:15;;;;;;;9.40;6.15;;;;;;;1.69;100.00;99659.03;4998800;28;20031;-91
2021/11/29 07:26:45;;;;;;;8.07;5.82;;;;;;;1.70;100.00;99663.34;4998830;28;20054;-88
2021/11/29 07:29:16;;;;;;;12.15;6.68;;;;;;;1.70;100.00;99665.94;4957247;28;20066;-92
2021/11/29 07:31:45;;;;;;;12.52;6.07;;;;;;;1.71;100.00;99670.22;4975927;28;20039;-88
2021/11/29 07:34:12;;;;;;;9.55;6.10;;;;;;;1.72;100.00;99672.84;4981712;28;20180;-88
2021/11/29 07:36:39;;;;;;;8.82;5.40;;;;;;;1.72;100.00;99679.69;4977809;28;20053;-88
2021/11/29 07:39:10;;;;;;;8.38;5.88;;;;;;;1.69;100.00;99677.09;4983116;28;20058;-88
2021/11/29 07:41:39;;;;;;;10.60;6.78;;;;;;;1.67;100.00;99689.09;4964133;28;20066;-89
2021/11/29 07:44:06;;;;;;;9.15;5.75;;;;;;;1.66;100.00;99688.25;4959840;28;21245;-88
2021/11/29 07:46:33;;;;;;;10.88;5.97;;;;;;;1.68;100.00;99693.41;4968771;28;20057;-88
2021/11/29 07:49:06;;;;;;;10.00;5.90;;;;;;;1.67;100.00;99700.31;4973750;28;20053;-89
2021/11/29 07:51:33;;;;;;;9.88;6.43;;;;;;;1.69;100.00;99701.16;4988373;28;20042;-88
2021/11/29 07:54:02;;;;;;;9.40;6.07;;;;;;;1.69;100.00;99705.47;4989382;28;20398;-88
2021/11/29 07:56:30;;;;;;;12.82;5.38;;;;;;;1.69;100.00;99714.06;4959506;28;20054;-88
2021/11/29 07:58:59;;;;;;;9.48;6.03;;;;;;;1.70;100.00;99710.66;4988693;28;20034;-88
2021/11/29 08:01:28;;;;;;;8.20;5.47;;;;;;;1.73;100.00;99715.84;4972893;28;20144;-88
2021/11/29 08:03:56;;;;;;;8.82;5.65;;;;;;;1.72;100.00;99714.13;4980583;28;20054;-89
2021/11/29 08:06:23;;;;;;;8.13;5.28;;;;;;;1.73;100.00;99714.97;4975359;28;20583;-88
2021/11/29 08:08:52;;;;;;;9.32;5.80;;;;;;;1.74;100.00;99711.56;4986738;28;20041;-89
2021/11/29 08:11:18;;;;;;;6.05;5.13;;;;;;;1.75;100.00;99721.88;4955975;28;20125;-88
2021/11/29 08:13:49;;;;;;;12.82;6.53;;;;;;;1.72;100.00;99721.88;4972952;28;20062;-90
2021/11/29 08:16:17;;;;;;;11.25;6.28;;;;;;;1.74;100.00;99730.47;4977657;28;20592;-89
2021/11/29 08:18:45;;;;;;;10.40;5.95;;;;;;;1.71;100.00;99732.13;4982693;28;21200;-89
2021/11/29 08:21:12;;;;;;;12.13;6.78;;;;;;;1.73;100.00;99733.03;4965968;28;20165;-88
2021/11/29 08:23:43;;;;;;;13.48;5.80;;;;;;;1.77;100.00;99734.81;4952284;28;20061;-89
2021/11/29 08:26:11;;;;;;;8.15;5.90;;;;;;;1.79;100.00;99746.03;4952883;28;20054;-86
2021/11/29 08:28:41;;;;;;;7.93;6.20;;;;;;;1.83;100.00;99741.78;4956949;28;20056;-87
2021/11/29 08:31:11;;;;;;;9.45;6.53;;;;;;;1.85;100.00;99740.91;4960699;28;20135;-88
2021/11/29 08:33:44;;;;;;;13.98;7.70;;;;;;;1.84;100.00;99744.38;4975522;28;20054;-89
2021/11/29 08:36:11;;;;;;;11.43;6.55;;;;;;;1.83;100.00;99755.53;5002653;28;20033;-88
2021/11/29 08:38:38;;;;;;;13.55;6.88;;;;;;;1.83;100.00;99760.69;4994393;28;20030;-89
2021/11/29 08:41:08;;;;;;;10.80;7.47;;;;;;;1.82;100.00;99758.94;4986950;28;20058;-88
2021/11/29 08:43:38;;;;;;;10.05;6.95;;;;;;;1.83;100.00;99768.44;4973704;28;20594;-88
2021/11/29 08:46:06;;;;;;;8.88;6.65;;;;;;;1.86;100.00;99773.63;4969566;28;20133;-88
2021/11/29 08:48:34;;;;;;;10.45;7.50;;;;;;;1.88;100.00;99763.31;4988326;28;20038;-89
2021/11/29 08:51:02;;;;;;;12.90;6.75;;;;;;;1.89;100.00;99773.69;4971958;28;20054;-88
2021/11/29 08:53:29;;;;;;;13.25;6.40;;;;;;;1.93;100.00;99782.28;4986148;28;21428;-89
2021/11/29 08:55:59;;;;;;;11.40;7.25;;;;;;;1.94;100.00;99784.94;4985062;28;20057;-87
2021/11/29 08:58:27;;;;;;;9.73;6.47;;;;;;;2.00;100.00;99783.25;4975784;28;20256;-88
2021/11/29 09:00:56;;;;;;;9.27;6.88;;;;;;;2.03;100.00;99791.88;4979827;28;20496;-88
2021/11/29 09:03:24;;;;;;;12.20;7.47;;;;;;;2.07;100.00;99796.22;4989832;28;20042;-87
2021/11/29 09:05:54;;;;;;;8.77;5.40;;;;;;;2.12;100.00;99804.91;4977737;28;20289;-88
2021/11/29 09:08:23;;;;;;;9.68;6.10;;;;;;;2.18;100.00;99788.63;4970273;28;20065;-88
2021/11/29 09:10:52;;;;;;;8.77;5.32;;;;;;;2.15;100.00;99793.75;4953448;28;20057;-88
2021/11/29 09:13:23;;;;;;;9.38;5.72;;;;;;;2.14;100.00;99797.19;4972843;28;20076;-88
2021/11/29 09:15:50;;;;;;;9.45;6.10;;;;;;;2.15;100.00;99807.53;4968834;28;20113;-88
2021/11/29 09:18:18;;;;;;;11.43;7.32;;;;;;;2.18;100.00;99805.81;4957446;28;20141;-88
2021/11/29 09:20:45;;;;;;;12.77;6.95;;;;;;;2.24;100.00;99806.78;4969328;28;20038;-88
2021/11/29 09:23:14;;;;;;;11.30;7.10;;;;;;;2.32;100.00;99814.59;4947294;28;20050;-88
2021/11/29 09:25:42;;;;;;;12.32;8.10;;;;;;;2.36;100.00;99812.91;4964833;28;20054;-89
2021/11/29 09:28:14;;;;;;;10.13;7.38;;;;;;;2.39;100.00;99821.56;4945142;28;20046;-88
2021/11/29 09:30:44;;;;;;;15.13;7.80;;;;;;;2.44;100.00;99825.06;4955321;28;20092;-88
2021/11/29 09:33:14;;;;;;;14.07;8.40;;;;;;;2.53;100.00;99824.31;4968041;28;20484;-89
2021/11/29 09:35:41;;;;;;;14.32;8.88;;;;;;;2.63;100.00;99835.59;4969195;28;20319;-89
2021/11/29 09:38:08;;;;;;;14.60;8.20;;;;;;;2.70;100.00;99828.75;4953222;28;20693;-89
2021/11/29 09:40:40;;;;;;;15.55;9.68;;;;;;;2.79;100.00;99828.84;4970888;28;21295;-88
2021/11/29 09:43:12;;;;;;;13.20;8.43;;;;;;;2.85;100.00;99838.41;4977147;28;20053;-90
2021/11/29 09:45:46;;;;;;;15.45;9.23;;;;;;;2.89;100.00;99841.00;4990426;28;20869;-89
2021/11/29 09:48:22;;;;;;;14.43;8.93;;;;;;;2.94;100.00;99848.81;4969472;28;20098;-89
2021/11/29 09:50:56;;;;;;;13.82;8.75;;;;;;;2.98;100.00;99838.50;4970644;28;20052;-88
2021/11/29 09:53:30;;;;;;;14.43;8.65;;;;;;;3.00;100.00;99843.72;4972939;28;20562;-89
2021/11/29 09:56:00;;;;;;;19.58;8.35;;;;;;;3.04;100.00;99850.63;4955395;28;20062;-89
2021/11/29 09:58:30;;;;;;;13.70;8.50;;;;;;;3.06;100.00;99843.75;4953859;28;20117;-89
2021/11/29 10:01:07;;;;;;;13.77;8.35;;;;;;;3.07;100.00;99849.78;4972641;28;20042;-87
2021/11/29 10:03:43;;;;;;;12.98;8.48;;;;;;;3.08;100.00;99856.72;4988327;28;20042;-90
2021/11/29 10:06:12;;;;;;;12.90;8.57;;;;;;;3.11;100.00;99859.31;4962182;28;20074;-89
2021/11/29 10:08:40;;;;;;;17.65;9.23;;;;;;;3.10;100.00;99853.28;4971967;28;20076;-89
2021/11/29 10:11:12;;;;;;;12.57;8.38;;;;;;;3.13;100.00;99865.38;4972341;28;20281;-90
2021/11/29 10:13:53;;;;;;;14.07;7.95;;;;;;;3.15;100.00;99861.06;4987202;28;20050;-89
2021/11/29 10:16:40;;;;;;;15.55;8.70;;;;;;;3.15;99.88;99871.41;4977730;28;20050;-90
2021/11/29 10:19:12;;;;;;;14.55;8.45;;;;;;;3.14;99.10;99867.06;4974204;28;20116;-88
2021/11/29 10:21:45;;;;;;;11.38;7.38;;;;;;;3.11;98.82;99880.84;4982269;28;21436;-87
2021/11/29 10:24:16;;;;;;;16.75;8.43;;;;;;;3.11;99.05;99885.16;4977398;28;20061;-88
2021/11/29 10:26:52;;;;;;;12.95;8.20;;;;;;;3.11;99.14;99883.44;4986495;28;20077;-88
2021/11/29 10:29:25;;;;;;;12.95;8.65;;;;;;;3.12;98.53;99886.91;4965561;28;20042;-89
2021/11/29 10:31:57;;;;;;;17.85;8.70;;;;;;;3.15;99.06;99889.50;4969171;28;20140;-87
2021/11/29 10:34:32;;;;;;;12.32;8.32;;;;;;;3.18;98.25;99899.00;4970684;28;20097;-87
2021/11/29 10:37:12;;;;;;;14.27;8.80;;;;;;;3.16;98.21;99895.56;4955104;28;20062;-87
2021/11/29 10:39:47;;;;;;;13.75;8.35;;;;;;;3.13;98.32;99896.41;4936651;28;20499;-88
2021/11/29 10:42:16;;;;;;;12.80;8.57;;;;;;;3.13;97.96;99888.66;4958766;28;20058;-88
2021/11/29 10:47:21;;;;;;;16.95;9.80;;;;;;;3.12;97.29;99880.00;4820704;28;20074;-84
2021/11/29 10:49:58;;;;;;;16.60;9.55;;;;;;;3.16;97.83;99885.22;4923097;28;20129;-84
2021/11/29 10:52:33;;;;;;;17.15;9.73;;;;;;;3.19;97.07;99886.09;4924751;28;20051;-84
2021/11/29 10:55:00;;;;;;;14.55;10.27;;;;;;;3.20;96.93;99893.00;4941452;28;20043;-84
2021/11/29 10:57:29;;;;;;;17.83;11.18;;;;;;;3.22;97.12;99898.19;4953823;28;20050;-84
2021/11/29 10:59:57;;;;;;;25.17;10.85;;;;;;;3.25;96.30;99893.06;4940174;28;20101;-84
2021/11/29 11:02:30;;;;;;;17.58;9.65;;;;;;;3.26;96.29;99902.53;4940496;28;20763;-84
2021/11/29 11:05:12;;;;;;;14.82;9.75;;;;;;;3.26;96.05;99903.41;4939972;28;20050;-84
2021/11/29 11:07:40;;;;;;;19.77;9.65;;;;;;;3.27;96.33;99905.16;4959072;28;20062;-84
2021/11/29 11:10:13;;;;;;;18.88;10.48;;;;;;;3.29;96.13;99900.84;4942341;28;20524;-83
2021/11/29 11:12:41;;;;;;;19.27;10.77;;;;;;;3.30;96.15;99910.34;4973953;28;20068;-85
2021/11/29 11:15:15;;;;;;;14.05;8.98;;;;;;;3.33;96.45;99899.16;4944894;28;20073;-84
2021/11/29 11:17:42;;;;;;;16.90;8.27;;;;;;;3.38;95.37;99909.56;4943859;28;20042;-84
2021/11/29 11:20:13;;;;;;;12.15;7.72;;;;;;;3.37;95.92;99903.50;4955655;28;20054;-84
2021/11/29 11:22:49;;;;;;;17.75;10.25;;;;;;;3.41;96.08;99906.97;4942244;28;20043;-82
2021/11/29 11:25:20;;;;;;;14.85;8.88;;;;;;;3.41;96.04;99902.66;4923502;28;20062;-83
2021/11/29 11:28:06;;;;;;;14.02;8.10;;;;;;;3.42;94.70;99912.16;4940829;28;20047;-84
2021/11/29 11:30:43;;;;;;;17.15;8.85;;;;;;;3.42;94.92;99912.16;4939916;28;20141;-84
2021/11/29 11:33:20;;;;;;;9.30;6.55;;;;;;;3.45;95.12;99914.75;4923498;28;20145;-84
2021/11/29 11:35:52;;;;;;;13.82;7.93;;;;;;;3.48;95.05;99909.63;4926427;28;20047;-84
2021/11/29 11:38:25;;;;;;;12.68;7.55;;;;;;;3.53;94.17;99909.66;4941735;28;20038;-83
2021/11/29 11:40:54;;;;;;;16.57;7.53;;;;;;;3.51;93.44;99908.78;4926979;28;20106;-84
2021/11/29 11:43:23;;;;;;;14.20;9.40;;;;;;;3.47;93.60;99904.44;4925715;28;20192;-83
2021/11/29 11:45:52;;;;;;;19.13;7.82;;;;;;;3.47;93.86;99904.44;4940675;28;20095;-84
2021/11/29 11:48:19;;;;;;;14.23;8.05;;;;;;;3.48;93.63;99909.63;4924763;28;20066;-84
2021/11/29 11:50:53;;;;;;;14.70;8.55;;;;;;;3.46;93.31;99908.75;4919549;28;20047;-84
2021/11/29 11:53:22;;;;;;;14.25;8.52;;;;;;;3.49;93.27;99910.47;4926351;28;20059;-84